Terminal Aerodrome Forecast
Issued by NWS

Home | Current Version | Previous Version | Graphics & Text | Print | Product List | Glossary On
Versions: 1 2 3 4 5 6 7 8 9 10 11 12 13 14 15 16 17 18 19 20 21 22 23 24 25
990
FTUS41 KCLE 261333 AAA
TAFFDY
TAF AMD
KFDY 261333Z 2614/2712 07006KT 6SM -SHRA BKN035 OVC120
      TEMPO 2614/2617 VRB06KT 4SM SHRA BKN020
     FM261700 18010KT 6SM -SHRA BR OVC025
      TEMPO 2618/2621 3SM -TSRA OVC015CB
     FM262100 21010KT 6SM -SHRA BR BKN035
      TEMPO 2622/2701 3SM -TSRA OVC025CB
     FM270200 20004KT 6SM BR SCT012 BKN120
     FM270500 23006KT 3SM BR OVC012=

USA.gov is the U.S. government's official web portal to all federal, state and local government web resources and services.